createdAt,value
2019-02-10T00:01:11.351Z,5.90
2019-02-10T00:03:42.852Z,5.40
2019-02-10T00:06:14.483Z,5.50
2019-02-10T00:08:44.937Z,5.80
2019-02-10T00:11:17.131Z,5.50
2019-02-10T00:13:49.716Z,5.90
2019-02-10T00:16:21.688Z,5.50
2019-02-10T00:18:53.929Z,5.60
2019-02-10T00:21:24.245Z,5.70
2019-02-10T00:23:56.445Z,5.50
2019-02-10T00:26:26.855Z,5.90
2019-02-10T00:29:00.631Z,5.60
2019-02-10T00:31:31.562Z,5.60
2019-02-10T00:34:02.080Z,5.80
2019-02-10T00:36:34.480Z,5.40
2019-02-10T00:39:09.664Z,5.40
2019-02-10T00:41:40.419Z,5.40
2019-02-10T00:44:11.217Z,5.40
2019-02-10T00:46:43.077Z,5.60
2019-02-10T00:49:16.449Z,5.20
2019-02-10T00:51:48.669Z,5.40
2019-02-10T00:54:20.502Z,5.30
2019-02-10T00:56:51.681Z,5.40
2019-02-10T00:59:23.058Z,5.30
2019-02-10T01:01:55.186Z,5.40
2019-02-10T01:04:28.597Z,5.40
2019-02-10T01:06:59.303Z,5.40
2019-02-10T01:09:32.161Z,5.40
2019-02-10T01:12:04.541Z,5.20
2019-02-10T01:14:37.133Z,5.50
2019-02-10T01:17:08.667Z,5.40
2019-02-10T01:19:41.972Z,5.20
2019-02-10T01:22:14.362Z,5.20
2019-02-10T01:24:46.152Z,5.50
2019-02-10T01:27:17.263Z,5.20
2019-02-10T01:29:49.488Z,5.50
2019-02-10T01:32:22.006Z,5.40
2019-02-10T01:34:52.550Z,5.50
2019-02-10T01:37:23.270Z,5.20
2019-02-10T01:39:55.236Z,5.30
2019-02-10T01:42:26.065Z,5.60
2019-02-10T01:45:00.724Z,5.40
2019-02-10T01:47:33.182Z,5.20
2019-02-10T01:50:05.950Z,5.40
2019-02-10T01:52:37.565Z,5.40
2019-02-10T01:55:10.874Z,5.60
2019-02-10T01:57:41.992Z,5.50
2019-02-10T02:00:14.517Z,5.40
2019-02-10T02:02:44.995Z,5.20
2019-02-10T02:05:16.699Z,5.40
2019-02-10T02:07:47.472Z,5.20
2019-02-10T02:10:19.085Z,5.20
2019-02-10T02:12:52.206Z,5.40
2019-02-10T02:15:22.637Z,5.50
2019-02-10T02:17:53.453Z,5.30
2019-02-10T02:20:27.890Z,5.10
2019-02-10T02:23:01.373Z,5.30
2019-02-10T02:25:34.517Z,5.30
2019-02-10T02:28:06.852Z,5.30
2019-02-10T02:30:37.541Z,5.10
2019-02-10T02:33:12.750Z,5.10
2019-02-10T02:35:45.790Z,5.00
2019-02-10T02:38:19.010Z,5.00
2019-02-10T02:40:53.822Z,5.30
2019-02-10T02:43:26.726Z,5.10
2019-02-10T02:45:58.528Z,5.20
2019-02-10T02:48:30.863Z,5.10
2019-02-10T02:51:01.508Z,5.10
2019-02-10T02:53:35.078Z,5.10
2019-02-10T02:56:07.889Z,5.50
2019-02-10T02:58:43.232Z,5.10
2019-02-10T03:01:13.801Z,5.10
2019-02-10T03:03:45.928Z,5.20
2019-02-10T03:06:17.866Z,5.10
2019-02-10T03:08:49.343Z,5.20
2019-02-10T03:11:21.452Z,5.20
2019-02-10T03:13:53.661Z,5.50
2019-02-10T03:16:24.101Z,5.20
2019-02-10T03:18:54.614Z,5.20
2019-02-10T03:21:26.637Z,5.40
2019-02-10T03:23:57.049Z,5.30
2019-02-10T03:26:27.534Z,5.10
2019-02-10T03:28:59.384Z,5.40
2019-02-10T03:31:29.890Z,5.30
2019-02-10T03:34:00.309Z,5.20
2019-02-10T03:36:32.642Z,5.10
2019-02-10T03:39:04.682Z,5.30
2019-02-10T03:41:35.522Z,5.20
2019-02-10T03:44:05.997Z,5.10
2019-02-10T03:46:36.779Z,5.40
2019-02-10T03:49:07.084Z,5.40
2019-02-10T03:51:38.973Z,5.10
2019-02-10T03:54:11.900Z,5.10
2019-02-10T03:56:42.355Z,5.10
2019-02-10T03:59:12.851Z,5.10
2019-02-10T04:01:43.694Z,5.10
2019-02-10T04:04:14.387Z,5.10
2019-02-10T04:06:45.694Z,5.10
2019-02-10T04:09:17.964Z,4.80
2019-02-10T04:11:48.391Z,5.30
2019-02-10T04:14:19.202Z,5.20
2019-02-10T04:16:50.047Z,5.10
2019-02-10T04:19:20.797Z,5.20
2019-02-10T04:21:54.334Z,5.30
2019-02-10T04:24:24.739Z,5.30
2019-02-10T04:26:56.160Z,5.20
2019-02-10T04:29:27.382Z,5.20
2019-02-10T04:31:58.313Z,5.40
2019-02-10T04:34:30.088Z,5.40
2019-02-10T04:37:03.699Z,5.20
2019-02-10T04:39:37.259Z,5.10
2019-02-10T04:42:08.520Z,5.10
2019-02-10T04:44:40.082Z,5.10
2019-02-10T04:47:14.090Z,5.20
2019-02-10T04:49:45.599Z,5.20
2019-02-10T04:52:17.484Z,5.20
2019-02-10T04:54:49.256Z,5.10
2019-02-10T04:57:21.629Z,5.10
2019-02-10T04:59:52.132Z,5.30
2019-02-10T05:02:24.741Z,5.30
2019-02-10T05:04:55.780Z,5.10
2019-02-10T05:07:27.639Z,5.10
2019-02-10T05:09:58.477Z,5.10
2019-02-10T05:12:35.049Z,5.10
2019-02-10T05:15:07.432Z,5.40
2019-02-10T05:17:40.753Z,5.20
2019-02-10T05:20:11.750Z,5.20
2019-02-10T05:22:44.104Z,5.50
2019-02-10T05:25:16.110Z,5.30
2019-02-10T05:27:46.974Z,5.30
2019-02-10T05:30:19.675Z,5.30
2019-02-10T05:32:50.461Z,5.40
2019-02-10T05:35:23.215Z,5.40
2019-02-10T05:38:03.984Z,5.20
2019-02-10T05:40:29.307Z,5.10
2019-02-10T05:43:00.725Z,5.50
2019-02-10T05:45:33.277Z,5.20
2019-02-10T05:48:03.772Z,5.20
2019-02-10T05:50:34.610Z,5.40
2019-02-10T05:53:06.214Z,5.10
2019-02-10T05:55:37.930Z,5.70
2019-02-10T05:58:11.837Z,5.30
2019-02-10T06:00:43.741Z,5.40
2019-02-10T06:03:16.708Z,5.40
2019-02-10T06:05:47.156Z,5.20
2019-02-10T06:08:19.046Z,5.60
2019-02-10T06:10:49.677Z,5.30
2019-02-10T06:13:20.535Z,5.40
2019-02-10T06:15:54.442Z,5.30
2019-02-10T06:18:27.588Z,5.20
2019-02-10T06:20:57.960Z,5.30
2019-02-10T06:23:29.385Z,5.30
2019-02-10T06:26:00.187Z,5.20
2019-02-10T06:28:32.998Z,5.30
2019-02-10T06:31:08.711Z,5.50
2019-02-10T06:33:39.515Z,5.30
2019-02-10T06:36:10.387Z,5.30
2019-02-10T06:38:44.677Z,5.30
2019-02-10T06:41:17.072Z,5.50
2019-02-10T06:43:47.821Z,5.40
2019-02-10T06:46:21.682Z,5.10
2019-02-10T06:48:53.536Z,5.40
2019-02-10T06:51:24.126Z,5.60
2019-02-10T06:53:55.513Z,5.30
2019-02-10T06:56:31.040Z,5.20
2019-02-10T06:59:02.883Z,5.40
2019-02-10T07:01:46.583Z,5.20
2019-02-10T07:04:22.535Z,5.50
2019-02-10T07:06:55.716Z,5.40
2019-02-10T07:09:31.086Z,5.40
2019-02-10T07:12:39.707Z,5.50
2019-02-10T07:15:48.328Z,5.40
2019-02-10T07:18:54.669Z,5.50
2019-02-10T07:21:28.690Z,5.60
2019-02-10T07:24:19.845Z,5.50
2019-02-10T07:27:00.260Z,5.40
2019-02-10T07:30:14.121Z,5.40
2019-02-10T07:32:51.874Z,5.60
2019-02-10T07:35:43.178Z,5.80
2019-02-10T07:38:51.476Z,5.80
2019-02-10T07:41:49.662Z,5.60
2019-02-10T07:45:01.149Z,5.70
2019-02-10T07:48:11.317Z,6.20
2019-02-10T07:51:03.134Z,6.20
2019-02-10T07:54:23.593Z,6.40
2019-02-10T07:57:20.484Z,6.40
2019-02-10T08:00:27.693Z,6.20
2019-02-10T08:03:15.566Z,6.30
2019-02-10T08:06:38.665Z,6.70
2019-02-10T08:09:59.577Z,6.60
2019-02-10T08:13:17.210Z,6.50
2019-02-10T08:16:15.737Z,6.40
2019-02-10T08:19:39.575Z,6.70
2019-02-10T08:22:50.374Z,6.70
2019-02-10T08:26:28.578Z,6.70
2019-02-10T08:29:43.637Z,6.60
2019-02-10T08:32:37.539Z,6.90
2019-02-10T08:35:51.463Z,7.30
2019-02-10T08:38:57.731Z,7.30
2019-02-10T08:41:45.696Z,7.30
2019-02-10T08:44:52.104Z,7.60
2019-02-10T08:48:04.962Z,7.40
2019-02-10T08:51:28.907Z,7.50
2019-02-10T08:53:59.981Z,7.70
2019-02-10T08:56:30.491Z,7.50
2019-02-10T08:59:00.888Z,7.60
2019-02-10T09:01:31.290Z,7.80
2019-02-10T09:04:04.254Z,7.70
2019-02-10T09:06:34.847Z,8.30
2019-02-10T09:09:07.746Z,8.70
2019-02-10T09:11:39.404Z,8.80
2019-02-10T09:14:11.283Z,9.10
2019-02-10T09:16:42.086Z,9.30
2019-02-10T09:19:14.210Z,9.10
2019-02-10T09:21:45.020Z,8.90
2019-02-10T09:24:17.340Z,9.10
2019-02-10T09:26:47.672Z,9.30
2019-02-10T09:29:21.401Z,9.20
2019-02-10T09:31:51.828Z,9.60
2019-02-10T09:34:22.341Z,9.40
2019-02-10T09:36:55.563Z,10.00
2019-02-10T09:39:27.873Z,10.10
2019-02-10T09:41:58.686Z,10.20
2019-02-10T09:44:30.545Z,10.20
2019-02-10T09:47:03.135Z,10.30
2019-02-10T09:49:35.233Z,10.30
2019-02-10T09:52:05.840Z,10.60
2019-02-10T09:54:38.152Z,10.50
2019-02-10T09:57:12.200Z,11.00
2019-02-10T09:59:42.703Z,11.30
2019-02-10T10:02:13.564Z,11.40
2019-02-10T10:04:46.291Z,11.50
2019-02-10T10:07:18.612Z,11.80
2019-02-10T10:09:50.380Z,11.90
2019-02-10T10:12:22.961Z,13.00
2019-02-10T10:14:54.670Z,13.50
2019-02-10T10:17:26.517Z,14.20
2019-02-10T10:19:57.004Z,14.80
2019-02-10T10:22:28.580Z,14.10
2019-02-10T10:25:00.973Z,13.30
2019-02-10T10:27:36.468Z,12.50
2019-02-10T10:30:08.977Z,12.10
2019-02-10T10:32:40.517Z,11.60
2019-02-10T10:35:13.444Z,11.60
2019-02-10T10:37:47.452Z,11.10
2019-02-10T10:40:19.928Z,11.60
2019-02-10T10:42:50.298Z,11.60
2019-02-10T10:45:23.240Z,11.70
2019-02-10T10:47:54.020Z,11.30
2019-02-10T10:50:29.419Z,11.50
2019-02-10T10:53:07.645Z,11.80
2019-02-10T10:55:40.060Z,11.90
2019-02-10T10:58:11.639Z,12.10
2019-02-10T11:00:43.636Z,12.30
2019-02-10T11:03:15.049Z,12.40
2019-02-10T11:05:46.171Z,13.00
2019-02-10T11:08:17.876Z,13.50
2019-02-10T11:10:48.784Z,13.60
2019-02-10T11:13:20.520Z,13.00
2019-02-10T11:15:52.080Z,13.00
2019-02-10T11:18:25.212Z,12.80
2019-02-10T11:20:58.558Z,12.50
2019-02-10T11:23:29.581Z,12.10
2019-02-10T11:26:00.148Z,11.90
2019-02-10T11:28:30.628Z,12.00
2019-02-10T11:31:01.333Z,12.10
2019-02-10T11:33:33.062Z,12.20
2019-02-10T11:36:03.857Z,12.50
2019-02-10T11:38:37.239Z,12.60
2019-02-10T11:41:09.757Z,13.00
2019-02-10T11:43:41.196Z,13.10
2019-02-10T11:46:11.780Z,12.90
2019-02-10T11:48:44.134Z,13.00
2019-02-10T11:51:15.433Z,12.70
2019-02-10T11:53:47.849Z,12.30
2019-02-10T11:56:18.340Z,12.00
2019-02-10T11:58:53.524Z,12.10
2019-02-10T12:01:24.572Z,12.10
2019-02-10T12:03:58.588Z,12.20
2019-02-10T12:06:32.074Z,12.10
2019-02-10T12:09:02.894Z,11.80
2019-02-10T12:11:34.761Z,11.70
2019-02-10T12:14:06.639Z,11.70
2019-02-10T12:16:39.006Z,11.90
2019-02-10T12:19:09.620Z,12.30
2019-02-10T12:21:41.634Z,11.90
2019-02-10T12:24:12.067Z,12.00
2019-02-10T12:26:43.094Z,11.80
2019-02-10T12:29:15.083Z,11.60
2019-02-10T12:31:48.939Z,11.30
2019-02-10T12:34:20.978Z,11.20
2019-02-10T12:36:55.548Z,11.30
2019-02-10T12:39:28.429Z,11.40
2019-02-10T12:42:02.282Z,11.50
2019-02-10T12:44:32.698Z,11.10
2019-02-10T12:47:05.656Z,11.00
2019-02-10T12:49:36.995Z,11.10
2019-02-10T12:52:07.436Z,11.40
2019-02-10T12:54:38.940Z,11.30
2019-02-10T12:57:11.666Z,11.00
2019-02-10T12:59:42.485Z,11.30
2019-02-10T13:02:13.564Z,11.40
2019-02-10T13:04:45.861Z,11.40
2019-02-10T13:07:23.008Z,11.70
2019-02-10T13:09:54.917Z,11.60
2019-02-10T13:12:26.491Z,11.60
2019-02-10T13:15:00.443Z,12.10
2019-02-10T13:17:34.083Z,11.70
2019-02-10T13:20:04.664Z,11.80
2019-02-10T13:22:38.956Z,11.70
2019-02-10T13:25:11.052Z,11.90
2019-02-10T13:27:45.018Z,11.80
2019-02-10T13:30:16.894Z,11.70
2019-02-10T13:32:49.096Z,11.80
2019-02-10T13:35:19.651Z,12.10
2019-02-10T13:37:52.601Z,12.20
2019-02-10T13:40:23.068Z,12.50
2019-02-10T13:42:56.680Z,12.70
2019-02-10T13:45:28.490Z,12.60
2019-02-10T13:47:59.554Z,12.90
2019-02-10T13:50:34.734Z,12.70
2019-02-10T13:53:09.123Z,12.90
2019-02-10T13:55:40.166Z,12.80
2019-02-10T13:58:12.273Z,12.90
2019-02-10T14:00:42.968Z,12.30
2019-02-10T14:03:15.627Z,12.20
2019-02-10T14:05:49.498Z,12.20
2019-02-10T14:08:20.308Z,12.20
2019-02-10T14:10:51.165Z,12.10
2019-02-10T14:13:23.479Z,12.30
2019-02-10T14:15:57.385Z,12.30
2019-02-10T14:18:29.448Z,12.30
2019-02-10T14:21:02.594Z,12.30
2019-02-10T14:23:37.680Z,12.00
2019-02-10T14:26:11.031Z,12.00
2019-02-10T14:28:42.818Z,12.10
2019-02-10T14:31:13.257Z,12.10
2019-02-10T14:33:45.116Z,12.10
2019-02-10T14:36:15.704Z,11.90
2019-02-10T14:38:46.084Z,11.70
2019-02-10T14:41:16.977Z,11.90
2019-02-10T14:43:49.441Z,11.70
2019-02-10T14:46:20.930Z,12.10
2019-02-10T14:48:51.437Z,11.80
2019-02-10T14:51:23.431Z,11.90
2019-02-10T14:53:54.368Z,11.80
2019-02-10T14:56:26.100Z,11.70
2019-02-10T14:58:57.069Z,11.80
2019-02-10T15:01:31.008Z,12.00
2019-02-10T15:04:02.464Z,11.90
2019-02-10T15:06:32.979Z,11.80
2019-02-10T15:09:06.990Z,11.90
2019-02-10T15:11:39.195Z,11.80
2019-02-10T15:14:09.764Z,11.70
2019-02-10T15:16:40.877Z,11.80
2019-02-10T15:19:13.176Z,11.90
2019-02-10T15:21:45.378Z,11.50
2019-02-10T15:24:19.468Z,11.60
2019-02-10T15:26:52.602Z,11.60
2019-02-10T15:29:23.465Z,11.60
2019-02-10T15:31:53.867Z,11.40
2019-02-10T15:34:24.739Z,11.00
2019-02-10T15:36:55.509Z,11.00
2019-02-10T15:39:26.991Z,11.10
2019-02-10T15:42:00.339Z,11.20
2019-02-10T15:44:31.169Z,10.70
2019-02-10T15:47:02.133Z,10.80
2019-02-10T15:49:34.209Z,10.90
2019-02-10T15:52:05.034Z,10.60
2019-02-10T15:54:36.317Z,10.50
2019-02-10T15:57:08.609Z,10.40
2019-02-10T15:59:40.520Z,10.20
2019-02-10T16:02:13.021Z,10.40
2019-02-10T16:04:45.473Z,10.30
2019-02-10T16:07:17.248Z,10.20
2019-02-10T16:09:47.748Z,10.00
2019-02-10T16:12:18.576Z,10.40
2019-02-10T16:14:50.549Z,9.90
2019-02-10T16:17:22.922Z,9.90
2019-02-10T16:19:55.118Z,10.00
2019-02-10T16:22:26.367Z,10.30
2019-02-10T16:24:57.686Z,9.80
2019-02-10T16:27:28.520Z,9.90
2019-02-10T16:29:59.021Z,9.80
2019-02-10T16:32:31.857Z,9.80
2019-02-10T16:35:02.333Z,9.90
2019-02-10T16:37:33.919Z,9.70
2019-02-10T16:40:07.860Z,9.90
2019-02-10T16:42:38.377Z,9.70
2019-02-10T16:45:10.723Z,9.70
2019-02-10T16:47:45.402Z,9.60
2019-02-10T16:50:16.950Z,9.90
2019-02-10T16:52:48.287Z,9.80
2019-02-10T16:55:24.183Z,9.70
2019-02-10T16:57:56.044Z,9.60
2019-02-10T17:00:28.832Z,9.80
2019-02-10T17:03:00.712Z,9.70
2019-02-10T17:05:33.524Z,9.70
2019-02-10T17:08:05.337Z,9.90
2019-02-10T17:10:37.316Z,9.70
2019-02-10T17:13:08.492Z,9.50
2019-02-10T17:15:38.888Z,9.70
2019-02-10T17:18:12.055Z,9.70
2019-02-10T17:20:43.000Z,9.40
2019-02-10T17:23:13.775Z,9.20
2019-02-10T17:25:46.149Z,8.70
2019-02-10T17:28:18.827Z,8.80
2019-02-10T17:30:49.805Z,8.40
2019-02-10T17:33:20.357Z,8.20
2019-02-10T17:35:50.918Z,7.80
2019-02-10T17:38:23.213Z,7.60
2019-02-10T17:41:10.417Z,7.60
2019-02-10T17:43:44.372Z,7.40
2019-02-10T17:46:15.817Z,7.30
2019-02-10T17:48:46.575Z,7.30
2019-02-10T17:51:19.397Z,7.10
2019-02-10T17:53:50.901Z,7.30
2019-02-10T17:56:21.893Z,7.40
2019-02-10T17:58:53.403Z,7.30
2019-02-10T18:01:24.481Z,7.40
2019-02-10T18:03:56.191Z,6.90
2019-02-10T18:06:28.159Z,7.00
2019-02-10T18:09:00.855Z,7.00
2019-02-10T18:11:31.424Z,7.10
2019-02-10T18:14:03.663Z,7.20
2019-02-10T18:17:03.826Z,7.10
2019-02-10T18:19:53.037Z,7.40
2019-02-10T18:22:34.360Z,7.30
2019-02-10T18:25:18.591Z,6.90
2019-02-10T18:28:15.050Z,7.00
2019-02-10T18:31:12.424Z,7.10
2019-02-10T18:33:52.859Z,7.20
2019-02-10T18:36:41.160Z,6.90
2019-02-10T18:39:34.181Z,6.70
2019-02-10T18:42:32.970Z,7.10
2019-02-10T18:45:20.448Z,6.90
2019-02-10T18:48:12.611Z,7.10
2019-02-10T18:51:13.404Z,6.60
2019-02-10T18:54:03.066Z,6.90
2019-02-10T18:57:00.208Z,6.70
2019-02-10T18:59:53.816Z,6.90
2019-02-10T19:02:58.744Z,6.80
2019-02-10T19:05:54.211Z,6.70
2019-02-10T19:08:49.291Z,6.50
2019-02-10T19:11:47.290Z,6.60
2019-02-10T19:14:28.181Z,6.50
2019-02-10T19:17:31.504Z,6.60
2019-02-10T19:20:19.421Z,6.50
2019-02-10T19:23:09.908Z,6.40
2019-02-10T19:26:22.467Z,6.40
2019-02-10T19:29:20.261Z,6.10
2019-02-10T19:32:25.783Z,6.40
2019-02-10T19:35:16.972Z,6.20
2019-02-10T19:38:05.924Z,6.40
2019-02-10T19:40:56.991Z,6.30
2019-02-10T19:44:01.791Z,6.30
2019-02-10T19:47:00.145Z,6.10
2019-02-10T19:49:45.860Z,6.20
2019-02-10T19:52:35.229Z,6.20
2019-02-10T19:55:43.505Z,6.10
2019-02-10T19:58:37.247Z,5.90
2019-02-10T20:01:29.689Z,6.30
2019-02-10T20:04:28.966Z,6.20
2019-02-10T20:07:33.529Z,6.10
2019-02-10T20:10:13.764Z,6.10
2019-02-10T20:12:49.604Z,6.10
2019-02-10T20:15:34.144Z,6.30
2019-02-10T20:18:26.917Z,5.80
2019-02-10T20:21:18.235Z,6.10
2019-02-10T20:24:09.885Z,5.80
2019-02-10T20:27:15.885Z,6.10
2019-02-10T20:30:09.677Z,6.00
2019-02-10T20:33:16.169Z,6.10
2019-02-10T20:36:11.390Z,6.00
2019-02-10T20:39:07.638Z,5.80
2019-02-10T20:41:45.878Z,5.70
2019-02-10T20:44:38.111Z,5.40
2019-02-10T20:47:18.797Z,5.40
2019-02-10T20:50:08.119Z,5.50
2019-02-10T20:52:51.001Z,5.40
2019-02-10T20:55:27.804Z,5.60
2019-02-10T20:58:32.825Z,5.20
2019-02-10T21:01:18.116Z,5.40
2019-02-10T21:04:03.727Z,5.20
2019-02-10T21:06:58.105Z,5.20
2019-02-10T21:09:59.589Z,5.30
2019-02-10T21:12:53.842Z,5.10
2019-02-10T21:15:41.655Z,4.90
2019-02-10T21:18:33.834Z,5.10
2019-02-10T21:21:36.985Z,4.80
2019-02-10T21:24:38.742Z,5.00
2019-02-10T21:27:34.448Z,4.70
2019-02-10T21:30:24.817Z,4.60
2019-02-10T21:33:24.060Z,4.80
2019-02-10T21:36:05.297Z,4.50
2019-02-10T21:39:05.465Z,4.90
2019-02-10T21:41:59.096Z,4.80
2019-02-10T21:44:56.955Z,4.80
2019-02-10T21:47:44.349Z,4.90
2019-02-10T21:50:14.872Z,4.90
2019-02-10T21:52:45.374Z,4.90
2019-02-10T21:55:16.618Z,4.90
2019-02-10T21:57:47.180Z,5.10
2019-02-10T22:00:19.349Z,4.80
2019-02-10T22:02:51.221Z,5.10
2019-02-10T22:05:21.681Z,4.90
2019-02-10T22:07:58.495Z,4.90
2019-02-10T22:10:34.408Z,4.90
2019-02-10T22:13:07.147Z,4.90
2019-02-10T22:15:38.565Z,4.90
2019-02-10T22:18:09.209Z,4.90
2019-02-10T22:20:42.521Z,4.90
2019-02-10T22:23:15.991Z,5.10
2019-02-10T22:25:48.411Z,5.30
2019-02-10T22:28:19.142Z,4.90
2019-02-10T22:30:49.709Z,5.20
2019-02-10T22:33:20.545Z,5.30
2019-02-10T22:35:51.741Z,4.90
2019-02-10T22:38:22.473Z,5.10
2019-02-10T22:40:53.317Z,5.00
2019-02-10T22:43:25.376Z,4.80
2019-02-10T22:45:56.571Z,5.00
2019-02-10T22:48:28.917Z,4.90
2019-02-10T22:51:00.588Z,5.00
2019-02-10T22:53:31.360Z,4.90
2019-02-10T22:56:02.650Z,5.10
2019-02-10T22:58:34.371Z,5.20
2019-02-10T23:01:07.592Z,5.10
2019-02-10T23:03:38.256Z,5.10
2019-02-10T23:06:12.970Z,5.00
2019-02-10T23:08:43.553Z,5.00
2019-02-10T23:11:14.331Z,5.20
2019-02-10T23:13:45.858Z,5.30
2019-02-10T23:16:16.271Z,5.10
2019-02-10T23:18:48.177Z,5.10
2019-02-10T23:21:20.139Z,5.00
2019-02-10T23:23:53.979Z,5.10
2019-02-10T23:26:26.267Z,4.80
2019-02-10T23:28:58.820Z,4.70
2019-02-10T23:31:29.523Z,4.90
2019-02-10T23:34:01.383Z,4.50
2019-02-10T23:36:33.452Z,4.50
2019-02-10T23:39:05.617Z,4.40
2019-02-10T23:41:37.579Z,4.30
2019-02-10T23:44:11.054Z,4.30
2019-02-10T23:46:43.307Z,4.20
2019-02-10T23:49:15.828Z,4.00
2019-02-10T23:51:47.792Z,4.30
2019-02-10T23:54:19.546Z,4.30
2019-02-10T23:56:50.026Z,4.30
2019-02-10T23:59:20.503Z,4.20
